Terminal Aerodrome Forecast
Issued by NWS

Home | Current Version | Previous Version | Text Only | Print | Product List | Glossary On
Versions: 1 2 3 4 5 6 7 8 9 10 11 12 13 14 15 16 17 18 19
000
FTUS45 KRIW 310500
TAFRKS
TAF
KRKS 310539Z 3106/0106 06011KT P6SM VCSH SCT016 OVC050
      TEMPO 3106/3109 4SM -SHSN BKN016
     FM311500 28007KT P6SM FEW020 SCT060
     FM311900 28016G26KT P6SM FEW060
     FM010200 29008KT P6SM SCT250=

USA.gov is the U.S. government's official web portal to all federal, state and local government web resources and services.